Date,TemperatureHighF,TemperatureAvgF,TemperatureLowF,DewpointHighF,DewpointAvgF,DewpointLowF,HumidityHigh,HumidityAvg,HumidityLow,PressureMaxIn,PressureMinIn,WindSpeedMaxMPH,WindSpeedAvgMPH,GustSpeedMaxMPH,PrecipitationSumIn
2013-2-2,31.0,31.0,31.0,28.0,28.0,28.0,87,87,87,0.00,40.00,0,-999,0,0.00
2013-2-4,36.0,33.3,32.0,33.0,31.0,30.0,94,92,89,0.00,40.00,0,-999,0,0.00
2013-2-5,33.0,32.5,32.0,31.0,30.5,30.0,93,93,93,0.00,40.00,0,-999,0,0.04
2013-2-6,33.0,31.5,30.0,30.0,29.0,28.0,93,90,87,0.00,40.00,0,-999,0,0.00
2013-2-9,28.0,26.7,26.0,27.0,25.0,24.0,95,93,92,0.00,40.00,0,-999,0,0.00
2013-2-10,34.0,28.7,24.0,30.0,26.3,22.0,94,90,85,0.00,40.00,0,-999,0,0.00
2013-2-11,27.0,27.0,27.0,26.0,26.0,26.0,95,95,95,0.00,40.00,0,-999,0,0.00
2013-2-12,30.0,29.5,29.0,28.0,27.5,27.0,94,94,94,0.00,40.00,0,-999,0,0.00
2013-2-13,33.0,33.0,33.0,31.0,31.0,31.0,93,93,93,0.00,40.00,0,-999,0,0.00
2013-2-14,33.0,33.0,33.0,31.0,31.0,31.0,94,94,94,0.00,40.00,0,-999,0,0.00
2013-2-15,34.0,33.7,33.0,31.0,30.7,30.0,89,88,87,0.00,40.00,0,-999,0,0.00
2013-2-16,35.0,33.0,29.0,33.0,31.0,27.0,94,93,93,0.00,40.00,0,-999,0,0.03
2013-2-17,28.0,25.1,22.0,26.0,22.1,18.0,93,89,86,0.00,40.00,0,-999,0,0.00
2013-2-18,30.0,25.3,20.0,26.0,21.9,17.0,91,87,81,0.00,40.00,0,-999,0,0.00
2013-2-19,33.0,26.2,22.0,27.0,22.5,19.0,91,86,76,0.00,40.00,0,-999,0,0.00
2013-2-20,30.0,26.6,22.0,27.0,23.5,20.0,93,88,80,0.00,40.00,0,-999,0,0.03
2013-2-21,29.0,27.7,25.0,27.0,25.4,23.0,93,91,89,0.00,40.00,0,-999,0,0.32
2013-2-22,32.0,29.0,25.0,31.0,27.0,23.0,95,92,88,0.00,40.00,0,-999,0,1.25
2013-2-23,29.0,26.8,24.0,26.0,24.6,23.0,94,91,85,0.00,40.00,0,-999,0,0.53
2013-2-24,32.0,28.5,26.0,29.0,26.2,24.0,94,91,85,0.00,40.00,0,-999,0,0.00
2013-2-25,30.0,27.7,26.0,28.0,25.0,21.0,93,89,81,0.00,40.00,0,-999,0,0.70
2013-2-26,33.0,27.5,24.0,28.0,24.3,21.0,92,88,75,0.00,40.00,0,-999,0,0.02
2013-2-27,34.0,30.0,27.0,30.0,27.2,23.0,94,89,80,0.00,40.00,0,-999,0,0.17